createdAt,value
2018-01-30T00:00:10.663Z,1.30
2018-01-30T00:02:38.201Z,1.77
2018-01-30T00:05:05.739Z,1.33
2018-01-30T00:07:33.327Z,2.30
2018-01-30T00:10:00.911Z,2.03
2018-01-30T00:12:28.446Z,2.77
2018-01-30T00:14:55.982Z,1.43
2018-01-30T00:17:23.529Z,2.00
2018-01-30T00:19:51.062Z,1.50
2018-01-30T00:22:18.594Z,1.10
2018-01-30T00:24:46.970Z,2.13
2018-01-30T00:27:14.523Z,1.77
2018-01-30T00:29:42.057Z,1.60
2018-01-30T00:32:09.594Z,2.40
2018-01-30T00:34:37.130Z,1.47
2018-01-30T00:37:04.677Z,1.43
2018-01-30T00:39:32.209Z,2.03
2018-01-30T00:41:59.755Z,2.80
2018-01-30T00:44:28.171Z,2.10
2018-01-30T00:46:55.750Z,1.93
2018-01-30T00:49:23.384Z,2.77
2018-01-30T00:51:51.854Z,1.87
2018-01-30T00:54:20.182Z,1.47
2018-01-30T00:56:47.727Z,2.33
2018-01-30T00:59:15.262Z,1.63
2018-01-30T01:01:42.797Z,1.67
2018-01-30T01:04:10.330Z,1.80
2018-01-30T01:06:37.872Z,4.60
2018-01-30T01:09:05.418Z,2.10
2018-01-30T01:11:32.971Z,2.33
2018-01-30T01:14:00.510Z,2.50
2018-01-30T01:16:28.057Z,2.07
2018-01-30T01:18:55.630Z,2.27
2018-01-30T01:21:23.179Z,1.87
2018-01-30T01:23:51.659Z,2.50
2018-01-30T01:26:20.041Z,2.23
2018-01-30T01:28:48.288Z,2.50
2018-01-30T01:31:15.833Z,1.80
2018-01-30T01:33:44.297Z,2.40
2018-01-30T01:36:11.870Z,2.60
2018-01-30T01:38:39.407Z,2.07
2018-01-30T01:41:06.944Z,3.50
2018-01-30T01:43:35.280Z,2.00
2018-01-30T01:46:02.815Z,2.20
2018-01-30T01:48:31.303Z,2.30
2018-01-30T01:50:58.839Z,2.30
2018-01-30T01:53:26.377Z,1.47
2018-01-30T01:55:53.950Z,3.17
2018-01-30T01:58:21.488Z,1.60
2018-01-30T02:00:50.031Z,1.73
2018-01-30T02:03:17.574Z,2.20
2018-01-30T02:05:45.119Z,1.77
2018-01-30T02:08:12.658Z,2.13
2018-01-30T02:10:40.203Z,2.50
2018-01-30T02:13:07.775Z,1.70
2018-01-30T02:15:36.298Z,2.93
2018-01-30T02:18:03.874Z,1.87
2018-01-30T02:20:31.415Z,2.30
2018-01-30T02:22:58.958Z,2.07
2018-01-30T02:25:26.532Z,2.03
2018-01-30T02:27:54.072Z,1.90
2018-01-30T02:30:21.650Z,3.50
2018-01-30T02:32:49.196Z,2.63
2018-01-30T02:35:16.751Z,2.70
2018-01-30T02:37:44.287Z,2.47
2018-01-30T02:40:11.869Z,2.10
2018-01-30T02:42:39.406Z,2.90
2018-01-30T02:45:06.978Z,2.10
2018-01-30T02:47:34.517Z,2.70
2018-01-30T02:50:02.059Z,2.60
2018-01-30T02:52:29.709Z,2.13
2018-01-30T02:54:57.252Z,1.80
2018-01-30T02:57:24.802Z,2.60
2018-01-30T02:59:52.347Z,2.13
2018-01-30T03:02:19.913Z,3.00
2018-01-30T03:04:47.486Z,2.07
2018-01-30T03:07:15.036Z,1.70
2018-01-30T03:09:42.611Z,2.87
2018-01-30T03:12:10.192Z,2.93
2018-01-30T03:14:37.774Z,2.50
2018-01-30T03:17:05.314Z,2.00
2018-01-30T03:19:32.867Z,2.33
2018-01-30T03:22:00.462Z,1.80
2018-01-30T03:24:28.006Z,2.87
2018-01-30T03:26:55.559Z,2.30
2018-01-30T03:29:23.098Z,2.50
2018-01-30T03:31:50.675Z,1.50
2018-01-30T03:34:18.209Z,2.73
2018-01-30T03:36:45.779Z,2.10
2018-01-30T03:39:13.319Z,2.40
2018-01-30T03:41:40.898Z,2.47
2018-01-30T03:44:08.470Z,3.33
2018-01-30T03:46:36.016Z,2.90
2018-01-30T03:49:03.609Z,3.47
2018-01-30T03:51:31.154Z,2.27
2018-01-30T03:53:58.830Z,2.27
2018-01-30T03:56:26.363Z,2.43
2018-01-30T03:58:53.907Z,2.40
2018-01-30T04:01:21.450Z,1.93
2018-01-30T04:03:48.987Z,2.20
2018-01-30T04:06:16.531Z,3.00
2018-01-30T04:08:44.075Z,2.70
2018-01-30T04:11:11.611Z,2.30
2018-01-30T04:13:39.155Z,1.67
2018-01-30T04:16:06.759Z,2.70
2018-01-30T04:18:34.300Z,2.20
2018-01-30T04:21:01.849Z,2.10
2018-01-30T04:23:29.389Z,2.30
2018-01-30T04:25:56.936Z,3.47
2018-01-30T04:28:24.471Z,2.30
2018-01-30T04:30:52.045Z,2.90
2018-01-30T04:33:19.587Z,1.90
2018-01-30T04:35:47.126Z,2.23
2018-01-30T04:38:14.668Z,3.07
2018-01-30T04:40:42.203Z,2.53
2018-01-30T04:43:09.789Z,2.60
2018-01-30T04:45:37.330Z,3.07
2018-01-30T04:48:04.878Z,1.20
2018-01-30T04:50:32.451Z,2.17
2018-01-30T04:52:59.990Z,3.10
2018-01-30T04:55:27.535Z,2.60
2018-01-30T04:57:55.080Z,2.70
2018-01-30T05:00:22.657Z,2.23
2018-01-30T05:02:50.202Z,3.27
2018-01-30T05:05:17.782Z,2.77
2018-01-30T05:07:45.323Z,3.50
2018-01-30T05:10:12.866Z,2.53
2018-01-30T05:12:40.453Z,3.90
2018-01-30T05:15:07.982Z,3.03
2018-01-30T05:17:35.525Z,2.30
2018-01-30T05:20:03.123Z,2.67
2018-01-30T05:22:30.731Z,1.93
2018-01-30T05:24:58.276Z,2.57
2018-01-30T05:27:25.809Z,2.03
2018-01-30T05:29:53.355Z,2.67
2018-01-30T05:32:20.902Z,2.60
2018-01-30T05:34:48.455Z,2.00
2018-01-30T05:37:16.005Z,2.20
2018-01-30T05:39:43.556Z,2.33
2018-01-30T05:42:11.138Z,2.40
2018-01-30T05:44:38.679Z,2.20
2018-01-30T05:47:06.222Z,1.80
2018-01-30T05:49:33.761Z,2.30
2018-01-30T05:52:01.309Z,2.07
2018-01-30T05:54:28.859Z,2.73
2018-01-30T05:56:56.400Z,1.87
2018-01-30T05:59:23.937Z,2.63
2018-01-30T06:01:51.522Z,3.30
2018-01-30T06:04:19.073Z,1.90
2018-01-30T06:06:46.650Z,1.70
2018-01-30T06:09:14.200Z,2.60
2018-01-30T06:11:41.773Z,1.70
2018-01-30T06:14:09.321Z,2.00
2018-01-30T06:16:36.860Z,1.73
2018-01-30T06:19:04.402Z,2.63
2018-01-30T06:21:31.943Z,1.87
2018-01-30T06:23:59.524Z,2.30
2018-01-30T06:26:27.071Z,3.10
2018-01-30T06:28:54.677Z,2.90
2018-01-30T06:31:22.217Z,2.70
2018-01-30T06:33:49.763Z,2.03
2018-01-30T06:36:17.311Z,2.40
2018-01-30T06:38:44.858Z,2.37
2018-01-30T06:41:12.518Z,2.83
2018-01-30T06:43:40.064Z,2.97
2018-01-30T06:46:07.639Z,2.57
2018-01-30T06:48:35.203Z,2.57
2018-01-30T06:51:02.854Z,2.00
2018-01-30T06:53:30.439Z,2.47
2018-01-30T06:55:57.991Z,4.13
2018-01-30T06:58:25.531Z,3.37
2018-01-30T07:00:53.135Z,3.00
2018-01-30T07:03:20.762Z,2.37
2018-01-30T07:05:48.352Z,3.00
2018-01-30T07:08:15.931Z,2.27
2018-01-30T07:10:43.475Z,2.20
2018-01-30T07:13:11.074Z,2.20
2018-01-30T07:15:38.617Z,2.40
2018-01-30T07:18:06.167Z,4.53
2018-01-30T07:20:33.702Z,1.80
2018-01-30T07:23:01.258Z,2.80
2018-01-30T07:25:28.802Z,2.07
2018-01-30T07:27:56.376Z,2.03
2018-01-30T07:30:23.914Z,3.00
2018-01-30T07:32:51.462Z,1.90
2018-01-30T07:35:19.042Z,2.23
2018-01-30T07:37:46.718Z,2.20
2018-01-30T07:40:14.254Z,1.60
2018-01-30T07:42:41.838Z,3.10
2018-01-30T07:45:09.382Z,2.70
2018-01-30T07:47:36.934Z,2.20
2018-01-30T07:50:04.501Z,2.30
2018-01-30T07:52:32.060Z,3.67
2018-01-30T07:54:59.609Z,1.90
2018-01-30T07:57:27.171Z,2.50
2018-01-30T07:59:54.709Z,2.33
2018-01-30T08:02:22.250Z,2.30
2018-01-30T08:04:49.801Z,2.30
2018-01-30T08:07:18.021Z,2.47
2018-01-30T08:09:45.579Z,3.50
2018-01-30T08:12:13.119Z,3.33
2018-01-30T08:14:40.668Z,2.53
2018-01-30T08:17:09.041Z,1.97
2018-01-30T08:19:36.623Z,3.00
2018-01-30T08:22:04.194Z,2.70
2018-01-30T08:24:31.814Z,3.13
2018-01-30T08:26:59.363Z,2.60
2018-01-30T08:29:26.987Z,2.30
2018-01-30T08:31:54.561Z,3.97
2018-01-30T08:34:23.035Z,2.63
2018-01-30T08:36:50.632Z,2.27
2018-01-30T08:39:18.290Z,3.20
2018-01-30T08:41:45.838Z,2.50
2018-01-30T08:44:13.384Z,2.30
2018-01-30T08:46:40.937Z,3.00
2018-01-30T08:49:08.479Z,2.30
2018-01-30T08:51:36.025Z,2.97
2018-01-30T08:54:03.574Z,2.70
2018-01-30T08:56:31.118Z,2.97
2018-01-30T08:58:58.663Z,2.63
2018-01-30T09:01:26.205Z,2.63
2018-01-30T09:03:53.755Z,4.53
2018-01-30T09:06:21.303Z,2.80
2018-01-30T09:08:49.752Z,2.50
2018-01-30T09:11:17.357Z,2.73
2018-01-30T09:13:45.414Z,3.13
2018-01-30T09:16:12.959Z,2.47
2018-01-30T09:18:40.550Z,3.57
2018-01-30T09:21:08.103Z,3.10
2018-01-30T09:23:35.657Z,2.27
2018-01-30T09:26:03.266Z,2.40
2018-01-30T09:28:30.840Z,2.80
2018-01-30T09:30:58.390Z,3.10
2018-01-30T09:33:25.934Z,4.27
2018-01-30T09:35:53.510Z,2.63
2018-01-30T09:38:21.054Z,2.80
2018-01-30T09:40:48.603Z,2.87
2018-01-30T09:43:16.147Z,3.07
2018-01-30T09:45:43.687Z,3.10
2018-01-30T09:48:11.222Z,3.40
2018-01-30T09:50:38.873Z,3.80
2018-01-30T09:53:06.419Z,3.47
2018-01-30T09:55:33.957Z,3.20
2018-01-30T09:58:01.498Z,3.00
2018-01-30T10:00:29.118Z,3.00
2018-01-30T10:02:56.695Z,2.30
2018-01-30T10:05:24.239Z,3.10
2018-01-30T10:07:51.863Z,3.40
2018-01-30T10:10:19.459Z,3.00
2018-01-30T10:12:47.058Z,3.07
2018-01-30T10:15:14.594Z,3.40
2018-01-30T10:17:42.245Z,2.80
2018-01-30T10:20:09.843Z,2.80
2018-01-30T10:22:37.367Z,4.17
2018-01-30T10:25:04.959Z,3.80
2018-01-30T10:27:32.502Z,3.10
2018-01-30T10:30:00.072Z,2.70
2018-01-30T10:32:27.648Z,3.33
2018-01-30T10:34:55.206Z,2.70
2018-01-30T10:37:22.758Z,3.33
2018-01-30T10:39:50.378Z,2.97
2018-01-30T10:42:17.968Z,9.83
2018-01-30T10:44:45.522Z,7.73
2018-01-30T10:47:13.106Z,4.20
2018-01-30T10:49:40.702Z,2.90
2018-01-30T10:52:08.245Z,2.97
2018-01-30T10:54:35.789Z,3.63
2018-01-30T10:57:03.422Z,3.10
2018-01-30T10:59:31.083Z,3.10
2018-01-30T11:01:58.624Z,3.00
2018-01-30T11:04:26.162Z,2.47
2018-01-30T11:06:54.799Z,3.87
2018-01-30T11:09:22.427Z,3.10
2018-01-30T11:11:50.015Z,3.00
2018-01-30T11:14:17.673Z,4.17
2018-01-30T11:16:45.223Z,2.90
2018-01-30T11:19:14.486Z,4.50
2018-01-30T11:21:42.388Z,2.57
2018-01-30T11:24:10.740Z,2.70
2018-01-30T11:26:39.104Z,3.00
2018-01-30T11:29:06.856Z,3.50
2018-01-30T11:31:34.843Z,3.43
2018-01-30T11:34:02.390Z,2.90
2018-01-30T11:36:30.858Z,2.27
2018-01-30T11:38:58.409Z,3.57
2018-01-30T11:41:26.270Z,3.00
2018-01-30T11:43:53.823Z,2.30
2018-01-30T11:46:22.100Z,3.10
2018-01-30T11:48:50.241Z,3.63
2018-01-30T11:51:18.227Z,2.97
2018-01-30T11:53:45.766Z,3.63
2018-01-30T11:56:14.686Z,2.90
2018-01-30T11:58:44.242Z,3.33
2018-01-30T12:01:11.801Z,2.70
2018-01-30T12:03:39.398Z,2.43
2018-01-30T12:06:07.953Z,2.90
2018-01-30T12:08:36.502Z,2.97
2018-01-30T12:11:04.816Z,2.60
2018-01-30T12:13:34.536Z,3.27
2018-01-30T12:16:02.150Z,2.67
2018-01-30T12:18:29.883Z,2.10
2018-01-30T12:20:58.668Z,3.30
2018-01-30T12:23:26.229Z,3.77
2018-01-30T12:25:54.641Z,3.37
2018-01-30T12:28:22.426Z,3.37
2018-01-30T12:30:50.700Z,2.30
2018-01-30T12:33:18.299Z,2.47
2018-01-30T12:35:47.747Z,2.47
2018-01-30T12:38:15.340Z,2.50
2018-01-30T12:40:42.878Z,2.40
2018-01-30T12:43:10.421Z,2.40
2018-01-30T12:45:37.986Z,2.77
2018-01-30T12:48:05.544Z,3.00
2018-01-30T12:50:33.110Z,3.57
2018-01-30T12:53:00.652Z,3.40
2018-01-30T12:55:28.197Z,2.80
2018-01-30T12:57:55.734Z,2.43
2018-01-30T13:00:23.278Z,2.10
2018-01-30T13:02:50.823Z,2.17
2018-01-30T13:05:18.431Z,2.60
2018-01-30T13:07:45.971Z,2.70
2018-01-30T13:10:13.523Z,2.50
2018-01-30T13:12:41.071Z,2.20
2018-01-30T13:15:08.709Z,1.90
2018-01-30T13:17:36.290Z,3.10
2018-01-30T13:22:32.983Z,2.43
2018-01-30T13:25:00.579Z,2.53
2018-01-30T13:27:28.122Z,1.60
2018-01-30T13:29:55.718Z,2.50
2018-01-30T13:32:23.258Z,2.60
2018-01-30T13:34:50.799Z,2.60
2018-01-30T13:37:18.372Z,2.33
2018-01-30T13:39:46.830Z,2.53
2018-01-30T13:42:14.435Z,2.27
2018-01-30T13:44:41.972Z,2.30
2018-01-30T13:47:09.665Z,2.97
2018-01-30T13:49:37.215Z,2.43
2018-01-30T13:52:04.798Z,2.83
2018-01-30T13:54:32.446Z,2.10
2018-01-30T13:56:59.987Z,2.23
2018-01-30T13:59:27.535Z,2.77
2018-01-30T14:01:55.078Z,2.10
2018-01-30T14:04:22.686Z,2.37
2018-01-30T14:06:50.252Z,2.57
2018-01-30T14:09:17.815Z,2.17
2018-01-30T14:11:45.358Z,2.83
2018-01-30T14:14:12.903Z,2.20
2018-01-30T14:16:40.446Z,2.70
2018-01-30T14:19:07.988Z,1.90
2018-01-30T14:21:35.531Z,2.00
2018-01-30T14:24:03.171Z,1.80
2018-01-30T14:26:30.719Z,2.73
2018-01-30T14:28:58.261Z,2.10
2018-01-30T14:31:25.859Z,2.10
2018-01-30T14:33:53.403Z,2.03
2018-01-30T14:36:20.978Z,2.40
2018-01-30T14:38:48.526Z,2.40
2018-01-30T14:41:16.063Z,2.50
2018-01-30T14:43:43.652Z,2.10
2018-01-30T14:46:11.226Z,1.90
2018-01-30T14:48:38.771Z,2.13
2018-01-30T14:51:06.313Z,2.70
2018-01-30T14:53:33.882Z,1.80
2018-01-30T14:56:01.495Z,2.60
2018-01-30T14:58:29.043Z,2.37
2018-01-30T15:00:56.585Z,1.67
2018-01-30T15:03:24.127Z,1.93
2018-01-30T15:05:51.672Z,1.90
2018-01-30T15:08:19.246Z,1.87
2018-01-30T15:10:46.819Z,1.83
2018-01-30T15:13:14.410Z,1.90
2018-01-30T15:15:41.950Z,2.00
2018-01-30T15:18:09.481Z,1.80
2018-01-30T15:20:37.029Z,1.87
2018-01-30T15:23:04.570Z,3.60
2018-01-30T15:25:32.106Z,2.10
2018-01-30T15:27:59.655Z,2.40
2018-01-30T15:30:27.198Z,2.43
2018-01-30T15:32:54.734Z,2.40
2018-01-30T15:35:22.269Z,2.10
2018-01-30T15:37:49.805Z,1.83
2018-01-30T15:40:17.387Z,2.17
2018-01-30T15:42:44.924Z,2.43
2018-01-30T15:45:12.511Z,2.80
2018-01-30T15:47:40.124Z,2.60
2018-01-30T15:50:07.731Z,2.23
2018-01-30T15:52:35.275Z,2.40
2018-01-30T15:55:02.833Z,2.37
2018-01-30T15:57:30.374Z,2.67
2018-01-30T15:59:58.027Z,2.23
2018-01-30T16:02:25.598Z,2.63
2018-01-30T16:04:53.142Z,2.20
2018-01-30T16:07:20.779Z,3.03
2018-01-30T16:09:48.319Z,3.70
2018-01-30T16:12:15.958Z,3.37
2018-01-30T16:14:43.594Z,2.70
2018-01-30T16:17:11.128Z,3.00
2018-01-30T16:19:38.760Z,3.30
2018-01-30T16:22:06.309Z,2.93
2018-01-30T16:24:33.846Z,2.60
2018-01-30T16:27:01.394Z,6.20
2018-01-30T16:29:28.931Z,3.97
2018-01-30T16:31:56.514Z,3.37
2018-01-30T16:34:24.058Z,3.57
2018-01-30T16:36:51.676Z,3.27
2018-01-30T16:39:19.210Z,3.50
2018-01-30T16:41:46.786Z,2.87
2018-01-30T16:44:14.331Z,2.27
2018-01-30T16:46:41.900Z,2.83
2018-01-30T16:49:09.437Z,1.87
2018-01-30T16:51:36.976Z,2.70
2018-01-30T16:54:03.816Z,2.97
2018-01-30T16:56:31.356Z,3.30
2018-01-30T16:58:58.922Z,3.00
2018-01-30T17:01:26.482Z,2.93
2018-01-30T17:03:54.020Z,2.87
2018-01-30T17:06:21.563Z,2.50
2018-01-30T17:08:49.210Z,2.50
2018-01-30T17:11:16.756Z,2.87
2018-01-30T17:13:44.296Z,3.20
2018-01-30T17:16:11.831Z,3.57
2018-01-30T17:18:39.381Z,2.93
2018-01-30T17:21:06.962Z,3.00
2018-01-30T17:23:34.554Z,3.90
2018-01-30T17:26:02.136Z,3.70
2018-01-30T17:28:29.680Z,3.67
2018-01-30T17:30:57.221Z,2.13
2018-01-30T17:33:24.778Z,3.50
2018-01-30T17:35:52.325Z,2.50
2018-01-30T17:38:19.905Z,2.77
2018-01-30T17:40:47.446Z,3.10
2018-01-30T17:43:14.981Z,3.33
2018-01-30T17:45:42.523Z,2.53
2018-01-30T17:48:10.059Z,3.67
2018-01-30T17:50:37.605Z,2.90
2018-01-30T17:53:05.148Z,3.20
2018-01-30T17:55:32.751Z,4.80
2018-01-30T17:58:00.420Z,3.17
2018-01-30T18:00:27.958Z,3.17
2018-01-30T18:02:55.511Z,3.37
2018-01-30T18:05:23.051Z,3.60
2018-01-30T18:07:50.595Z,3.20
2018-01-30T18:10:18.138Z,3.67
2018-01-30T18:12:45.778Z,2.90
2018-01-30T18:15:13.319Z,3.40
2018-01-30T18:17:40.909Z,3.40
2018-01-30T18:20:08.451Z,2.83
2018-01-30T18:22:36.019Z,2.73
2018-01-30T18:25:03.561Z,6.07
2018-01-30T18:27:31.112Z,3.80
2018-01-30T18:29:58.703Z,5.10
2018-01-30T18:32:26.365Z,3.50
2018-01-30T18:34:53.929Z,6.30
2018-01-30T18:37:21.590Z,4.10
2018-01-30T18:39:49.146Z,5.27
2018-01-30T18:42:16.690Z,3.60
2018-01-30T18:44:44.237Z,3.20
2018-01-30T18:47:11.813Z,3.10
2018-01-30T18:49:39.655Z,3.60
2018-01-30T18:52:07.202Z,3.40
2018-01-30T18:54:34.791Z,3.10
2018-01-30T18:57:02.478Z,4.20
2018-01-30T18:59:30.118Z,3.37
2018-01-30T19:01:57.700Z,5.40
2018-01-30T19:04:25.245Z,6.83
2018-01-30T19:06:52.927Z,7.93
2018-01-30T19:09:20.465Z,6.90
2018-01-30T19:11:48.046Z,8.53
2018-01-30T19:14:15.588Z,6.10
2018-01-30T19:16:43.137Z,4.57
2018-01-30T19:19:10.678Z,4.73
2018-01-30T19:21:38.254Z,3.43
2018-01-30T19:24:05.798Z,3.60
2018-01-30T19:26:33.336Z,3.40
2018-01-30T19:29:00.879Z,4.10
2018-01-30T19:31:28.492Z,4.20
2018-01-30T19:33:56.030Z,3.00
2018-01-30T19:36:23.579Z,3.60
2018-01-30T19:38:51.128Z,3.07
2018-01-30T19:41:18.671Z,3.50
2018-01-30T19:43:46.218Z,4.97
2018-01-30T19:46:13.753Z,3.77
2018-01-30T19:48:41.299Z,4.60
2018-01-30T19:51:08.885Z,4.00
2018-01-30T19:53:36.426Z,4.23
2018-01-30T19:56:04.007Z,3.27
2018-01-30T19:58:31.563Z,3.57
2018-01-30T20:00:59.207Z,3.40
2018-01-30T20:03:26.747Z,3.30
2018-01-30T20:05:54.389Z,4.10
2018-01-30T20:08:22.706Z,3.70
2018-01-30T20:10:52.078Z,6.23
2018-01-30T20:13:22.165Z,4.03
2018-01-30T20:15:51.913Z,4.67
2018-01-30T20:18:20.929Z,5.33
2018-01-30T20:20:50.332Z,4.70
2018-01-30T20:23:32.084Z,4.03
2018-01-30T20:26:18.136Z,3.63
2018-01-30T20:28:46.339Z,4.03
2018-01-30T20:31:13.887Z,3.33
2018-01-30T20:33:41.454Z,3.90
2018-01-30T20:36:09.561Z,4.97
2018-01-30T20:38:39.551Z,3.90
2018-01-30T20:41:07.098Z,4.40
2018-01-30T20:43:34.644Z,4.17
2018-01-30T20:46:03.103Z,4.23
2018-01-30T20:48:31.404Z,4.13
2018-01-30T20:50:58.951Z,4.53
2018-01-30T20:53:27.548Z,4.10
2018-01-30T20:56:00.523Z,3.57
2018-01-30T20:58:30.466Z,5.00
2018-01-30T21:01:00.672Z,3.90
2018-01-30T21:03:31.852Z,4.43
2018-01-30T21:06:02.353Z,3.70
2018-01-30T21:08:35.108Z,4.10
2018-01-30T21:11:06.031Z,5.47
2018-01-30T21:13:37.458Z,4.40
2018-01-30T21:16:10.232Z,4.23
2018-01-30T21:18:37.789Z,4.33
2018-01-30T21:21:05.462Z,5.73
2018-01-30T21:23:33.009Z,4.73
2018-01-30T21:26:00.589Z,4.07
2018-01-30T21:28:28.138Z,4.80
2018-01-30T21:30:55.726Z,5.03
2018-01-30T21:33:23.270Z,5.40
2018-01-30T21:35:50.815Z,5.07
2018-01-30T21:38:18.354Z,4.10
2018-01-30T21:40:45.904Z,5.30
2018-01-30T21:43:13.481Z,6.03
2018-01-30T21:45:41.019Z,4.70
2018-01-30T21:48:08.595Z,5.03
2018-01-30T21:50:36.245Z,5.60
2018-01-30T21:53:03.796Z,5.27
2018-01-30T21:55:31.341Z,4.90
2018-01-30T21:57:58.891Z,5.80
2018-01-30T22:00:26.444Z,4.90
2018-01-30T22:02:53.986Z,4.40
2018-01-30T22:05:21.557Z,6.03
2018-01-30T22:07:49.135Z,5.30
2018-01-30T22:10:16.779Z,4.73
2018-01-30T22:12:44.328Z,5.57
2018-01-30T22:15:11.895Z,4.80
2018-01-30T22:17:39.435Z,4.87
2018-01-30T22:20:06.971Z,4.70
2018-01-30T22:22:34.503Z,4.27
2018-01-30T22:25:02.048Z,5.03
2018-01-30T22:27:29.591Z,4.93
2018-01-30T22:29:57.258Z,5.40
2018-01-30T22:32:24.814Z,4.87
2018-01-30T22:34:52.355Z,5.63
2018-01-30T22:37:19.910Z,4.83
2018-01-30T22:39:47.597Z,4.53
2018-01-30T22:42:15.147Z,6.03
2018-01-30T22:44:42.684Z,4.70
